createdAt,value
2023-01-15T00:01:05.776Z,25.30
2023-01-15T00:02:11.637Z,28.00
2023-01-15T00:03:15.728Z,20.98
2023-01-15T00:04:20.726Z,21.17
2023-01-15T00:05:24.985Z,24.50
2023-01-15T00:06:28.746Z,28.80
2023-01-15T00:07:34.062Z,20.52
2023-01-15T00:08:38.102Z,25.10
2023-01-15T00:09:43.078Z,24.02
2023-01-15T00:10:46.065Z,23.27
2023-01-15T00:11:49.725Z,25.38
2023-01-15T00:12:54.110Z,21.73
2023-01-15T00:13:57.556Z,23.33
2023-01-15T00:15:01.991Z,28.75
2023-01-15T00:16:13.644Z,24.70
2023-01-15T00:17:18.575Z,26.90
2023-01-15T00:18:22.154Z,25.25
2023-01-15T00:19:26.580Z,25.38
2023-01-15T00:20:36.594Z,24.75
2023-01-15T00:21:41.574Z,24.10
2023-01-15T00:22:44.920Z,23.10
2023-01-15T00:24:09.441Z,27.52
2023-01-15T00:25:32.886Z,26.27
2023-01-15T00:26:59.824Z,21.98
2023-01-15T00:28:08.003Z,24.50
2023-01-15T00:29:33.134Z,22.02
2023-01-15T00:30:41.969Z,24.50
2023-01-15T00:31:58.323Z,22.55
2023-01-15T00:33:01.553Z,25.13
2023-01-15T00:34:07.537Z,23.15
2023-01-15T00:35:23.094Z,28.40
2023-01-15T00:36:31.937Z,26.17
2023-01-15T00:37:35.673Z,23.15
2023-01-15T00:38:39.838Z,21.40
2023-01-15T00:39:45.494Z,22.08
2023-01-15T00:40:53.504Z,25.00
2023-01-15T00:41:58.088Z,23.60
2023-01-15T00:43:04.927Z,27.50
2023-01-15T00:44:11.662Z,24.73
2023-01-15T00:45:17.625Z,25.00
2023-01-15T00:46:22.035Z,24.48
2023-01-15T00:47:26.519Z,27.05
2023-01-15T00:48:34.329Z,24.58
2023-01-15T00:49:44.511Z,22.73
2023-01-15T00:50:48.011Z,23.45
2023-01-15T00:51:52.320Z,28.40
2023-01-15T00:52:55.755Z,23.73
2023-01-15T00:54:01.692Z,21.83
2023-01-15T00:55:07.647Z,26.75
2023-01-15T00:56:12.297Z,22.33
2023-01-15T00:57:15.750Z,23.77
2023-01-15T00:58:22.913Z,21.60
2023-01-15T00:59:28.065Z,24.67
2023-01-15T01:00:32.208Z,21.88
2023-01-15T01:01:36.175Z,23.30
2023-01-15T01:02:40.366Z,26.27
2023-01-15T01:03:50.383Z,24.23
2023-01-15T01:04:55.515Z,23.75
2023-01-15T01:06:05.474Z,25.27
2023-01-15T01:07:08.741Z,28.10
2023-01-15T01:08:13.458Z,23.20
2023-01-15T01:10:23.929Z,26.58
2023-01-15T01:11:34.297Z,32.70
2023-01-15T01:12:39.345Z,21.85
2023-01-15T01:13:48.483Z,28.05
2023-01-15T01:14:52.813Z,24.02
2023-01-15T01:15:59.004Z,24.92
2023-01-15T01:17:04.653Z,21.65
2023-01-15T01:18:08.303Z,27.13
2023-01-15T01:19:16.821Z,24.67
2023-01-15T01:20:21.893Z,27.40
2023-01-15T01:21:26.764Z,28.67
2023-01-15T01:22:34.594Z,22.25
2023-01-15T01:23:40.346Z,22.85
2023-01-15T01:24:44.791Z,27.35
2023-01-15T01:25:48.750Z,23.02
2023-01-15T01:26:54.322Z,22.20
2023-01-15T01:27:57.929Z,26.20
2023-01-15T01:29:01.414Z,25.23
2023-01-15T01:30:06.946Z,23.05
2023-01-15T01:31:12.091Z,25.08
2023-01-15T01:32:15.543Z,23.35
2023-01-15T01:33:20.419Z,24.33
2023-01-15T01:34:25.392Z,29.25
2023-01-15T01:35:35.577Z,29.83
2023-01-15T01:36:46.044Z,19.98
2023-01-15T01:37:56.886Z,27.30
2023-01-15T01:39:01.963Z,27.52
2023-01-15T01:40:08.842Z,26.75
2023-01-15T01:41:14.127Z,24.85
2023-01-15T01:42:19.559Z,23.08
2023-01-15T01:43:30.855Z,24.52
2023-01-15T01:44:37.377Z,23.40
2023-01-15T01:45:42.264Z,21.80
2023-01-15T01:46:48.749Z,25.10
2023-01-15T01:48:25.783Z,25.30
2023-01-15T01:49:31.671Z,23.08
2023-01-15T01:50:38.850Z,26.33
2023-01-15T01:51:50.561Z,24.42
2023-01-15T01:52:59.237Z,25.08
2023-01-15T01:54:04.253Z,24.83
2023-01-15T01:55:10.267Z,23.45
2023-01-15T01:56:13.568Z,24.05
2023-01-15T01:57:19.802Z,26.90
2023-01-15T01:58:25.781Z,23.17
2023-01-15T01:59:32.453Z,26.40
2023-01-15T02:00:45.708Z,30.25
2023-01-15T02:01:50.292Z,24.45
2023-01-15T02:02:58.592Z,25.80
2023-01-15T02:04:04.050Z,20.33
2023-01-15T02:05:09.920Z,24.60
2023-01-15T02:06:15.054Z,28.75
2023-01-15T02:07:18.493Z,25.17
2023-01-15T02:08:23.068Z,24.60
2023-01-15T02:09:31.202Z,23.40
2023-01-15T02:10:36.390Z,24.70
2023-01-15T02:11:41.795Z,25.45
2023-01-15T02:12:52.809Z,27.48
2023-01-15T02:14:13.000Z,23.55
2023-01-15T02:15:37.696Z,24.60
2023-01-15T02:16:46.886Z,24.02
2023-01-15T02:18:13.287Z,28.55
2023-01-15T02:19:52.982Z,25.95
2023-01-15T02:21:11.119Z,21.27
2023-01-15T02:22:19.939Z,26.98
2023-01-15T02:23:41.952Z,28.27
2023-01-15T02:25:15.661Z,23.65
2023-01-15T02:26:39.627Z,27.35
2023-01-15T02:27:49.951Z,24.58
2023-01-15T02:28:59.867Z,27.45
2023-01-15T02:30:26.988Z,28.08
2023-01-15T02:31:54.936Z,25.75
2023-01-15T02:33:18.583Z,28.52
2023-01-15T02:34:34.987Z,29.27
2023-01-15T02:35:56.857Z,28.40
2023-01-15T02:37:23.287Z,33.67
2023-01-15T02:38:32.125Z,28.77
2023-01-15T02:39:40.960Z,27.50
2023-01-15T02:44:22.838Z,26.95
2023-01-15T02:45:40.019Z,25.23
2023-01-15T02:46:49.429Z,28.90
2023-01-15T02:47:58.264Z,29.02
2023-01-15T02:49:07.096Z,28.85
2023-01-15T02:50:21.686Z,26.85
2023-01-15T02:51:38.006Z,29.95
2023-01-15T02:52:48.028Z,32.92
2023-01-15T02:54:03.007Z,27.83
2023-01-15T02:55:20.016Z,33.08
2023-01-15T02:56:28.784Z,28.45
2023-01-15T02:57:39.249Z,31.25
2023-01-15T02:58:46.899Z,27.92
2023-01-15T03:00:01.838Z,27.40
2023-01-15T03:01:19.229Z,30.75
2023-01-15T03:02:30.645Z,29.80
2023-01-15T03:03:34.394Z,25.33
2023-01-15T03:04:59.670Z,28.80
2023-01-15T03:06:11.644Z,28.63
2023-01-15T03:07:27.954Z,28.13
2023-01-15T03:08:32.730Z,27.38
2023-01-15T03:09:37.965Z,26.65
2023-01-15T03:11:12.390Z,28.75
2023-01-15T03:12:27.782Z,25.33
2023-01-15T03:13:51.544Z,24.52
2023-01-15T03:15:40.693Z,27.25
2023-01-15T03:16:53.103Z,28.92
2023-01-15T03:17:56.972Z,38.72
2023-01-15T03:19:05.603Z,30.45
2023-01-15T03:21:31.056Z,34.42
2023-01-15T03:22:40.298Z,26.27
2023-01-15T03:23:50.538Z,26.25
2023-01-15T03:25:14.698Z,26.33
2023-01-15T03:26:23.669Z,29.92
2023-01-15T03:27:28.117Z,29.83
2023-01-15T03:28:37.280Z,23.55
2023-01-15T03:29:48.221Z,31.67
2023-01-15T03:30:54.011Z,30.73
2023-01-15T03:32:00.611Z,30.42
2023-01-15T03:33:05.757Z,27.55
2023-01-15T03:34:09.844Z,30.48
2023-01-15T03:35:41.517Z,28.33
2023-01-15T03:36:46.469Z,27.88
2023-01-15T03:37:50.853Z,29.02
2023-01-15T03:38:55.690Z,26.42
2023-01-15T03:40:16.654Z,30.20
2023-01-15T03:41:39.210Z,29.20
2023-01-15T03:43:26.015Z,30.67
2023-01-15T03:44:46.086Z,27.35
2023-01-15T03:45:55.939Z,32.00
2023-01-15T03:47:13.461Z,25.13
2023-01-15T03:48:28.319Z,30.73
2023-01-15T03:49:58.713Z,25.33
2023-01-15T03:51:41.243Z,29.52
2023-01-15T03:53:24.205Z,35.38
2023-01-15T03:55:16.350Z,26.88
2023-01-15T03:56:45.207Z,31.75
2023-01-15T03:58:01.206Z,28.98
2023-01-15T03:59:33.752Z,37.97
2023-01-15T04:00:52.915Z,33.22
2023-01-15T04:02:00.423Z,37.40
2023-01-15T04:03:11.502Z,34.75
2023-01-15T04:04:16.978Z,27.80
2023-01-15T04:05:22.401Z,37.30
2023-01-15T04:06:32.968Z,30.85
2023-01-15T04:07:37.618Z,30.13
2023-01-15T04:08:44.907Z,32.40
2023-01-15T04:09:50.751Z,35.03
2023-01-15T04:10:59.491Z,32.92
2023-01-15T04:12:06.913Z,31.35
2023-01-15T04:13:16.931Z,33.78
2023-01-15T04:14:19.940Z,30.95
2023-01-15T04:15:27.616Z,28.48
2023-01-15T04:16:34.762Z,31.27
2023-01-15T04:17:40.254Z,31.63
2023-01-15T04:18:44.605Z,38.92
2023-01-15T04:19:49.072Z,26.65
2023-01-15T04:20:53.088Z,25.50
2023-01-15T04:21:56.072Z,29.13
2023-01-15T04:23:03.653Z,35.20
2023-01-15T04:24:08.622Z,32.35
2023-01-15T04:25:13.082Z,31.92
2023-01-15T04:26:18.342Z,32.08
2023-01-15T04:27:22.686Z,39.45
2023-01-15T04:28:25.424Z,37.35
2023-01-15T04:29:29.786Z,33.15
2023-01-15T04:30:35.475Z,28.00
2023-01-15T04:31:38.860Z,29.98
2023-01-15T04:34:12.245Z,31.48
2023-01-15T04:35:16.107Z,44.00
2023-01-15T04:36:20.862Z,34.90
2023-01-15T04:37:23.895Z,36.67
2023-01-15T04:38:27.771Z,31.10
2023-01-15T04:39:30.878Z,28.90
2023-01-15T04:40:55.226Z,32.22
2023-01-15T04:42:27.642Z,32.38
2023-01-15T04:43:49.207Z,32.17
2023-01-15T04:44:56.787Z,35.78
2023-01-15T04:46:02.352Z,27.77
2023-01-15T04:47:07.234Z,36.83
2023-01-15T04:48:13.784Z,36.15
2023-01-15T04:49:19.516Z,37.95
2023-01-15T04:50:22.523Z,35.88
2023-01-15T04:51:26.727Z,36.40
2023-01-15T04:52:37.361Z,38.22
2023-01-15T04:53:41.081Z,34.17
2023-01-15T04:54:43.943Z,32.63
2023-01-15T04:55:48.358Z,34.08
2023-01-15T04:56:55.856Z,37.92
2023-01-15T04:58:00.147Z,34.08
2023-01-15T04:59:14.676Z,39.20
2023-01-15T05:00:18.501Z,38.10
2023-01-15T05:01:25.108Z,37.00
2023-01-15T05:02:29.597Z,41.50
2023-01-15T05:03:33.763Z,36.42
2023-01-15T05:04:37.954Z,32.22
2023-01-15T05:05:43.339Z,39.63
2023-01-15T05:06:50.124Z,33.15
2023-01-15T05:07:58.963Z,40.72
2023-01-15T05:09:08.542Z,36.65
2023-01-15T05:10:14.217Z,36.75
2023-01-15T05:11:25.153Z,28.50
2023-01-15T05:12:30.044Z,38.47
2023-01-15T05:13:36.158Z,32.75
2023-01-15T05:14:43.429Z,28.30
2023-01-15T05:15:49.931Z,37.45
2023-01-15T05:16:53.891Z,42.17
2023-01-15T05:17:58.145Z,32.25
2023-01-15T05:19:05.169Z,30.73
2023-01-15T05:20:11.540Z,36.45
2023-01-15T05:21:35.065Z,29.30
2023-01-15T05:22:38.514Z,37.53
2023-01-15T05:23:44.143Z,38.10
2023-01-15T05:24:47.320Z,40.03
2023-01-15T05:25:56.527Z,38.53
2023-01-15T05:27:00.870Z,44.67
2023-01-15T05:28:13.147Z,36.60
2023-01-15T05:29:18.483Z,41.63
2023-01-15T05:30:24.468Z,34.38
2023-01-15T05:31:28.451Z,38.35
2023-01-15T05:32:40.970Z,39.55
2023-01-15T05:33:51.267Z,34.20
2023-01-15T05:34:57.382Z,37.50
2023-01-15T05:36:06.938Z,34.25
2023-01-15T05:37:13.900Z,34.83
2023-01-15T05:38:24.132Z,39.17
2023-01-15T05:43:11.583Z,40.28
2023-01-15T05:44:17.791Z,35.72
2023-01-15T05:45:27.313Z,40.42
2023-01-15T05:46:42.908Z,37.88
2023-01-15T05:47:59.918Z,37.28
2023-01-15T05:49:19.994Z,40.92
2023-01-15T05:50:24.726Z,35.75
2023-01-15T05:52:50.828Z,40.72
2023-01-15T05:54:05.186Z,42.35
2023-01-15T05:55:13.240Z,36.28
2023-01-15T05:57:44.875Z,39.38
2023-01-15T05:58:54.535Z,40.63
2023-01-15T06:00:40.104Z,32.35
2023-01-15T06:01:46.866Z,38.30
2023-01-15T06:03:15.021Z,39.63
2023-01-15T06:04:21.718Z,38.65
2023-01-15T06:05:28.096Z,39.22
2023-01-15T06:06:41.983Z,39.20
2023-01-15T06:12:34.140Z,34.13
2023-01-15T06:13:42.408Z,38.47
2023-01-15T06:15:13.604Z,46.00
2023-01-15T06:16:27.876Z,36.92
2023-01-15T06:17:34.142Z,36.63
2023-01-15T06:18:42.438Z,45.78
2023-01-15T06:19:48.772Z,40.25
2023-01-15T06:21:05.703Z,45.35
2023-01-15T06:22:29.545Z,42.10
2023-01-15T06:23:45.615Z,43.40
2023-01-15T06:24:55.066Z,37.63
2023-01-15T06:26:02.283Z,43.53
2023-01-15T07:05:59.534Z,34.47
2023-01-15T08:37:01.766Z,36.72
2023-01-15T08:38:22.137Z,38.40
2023-01-15T08:39:29.262Z,33.90
2023-01-15T08:40:36.207Z,36.15
2023-01-15T08:41:45.797Z,35.25
2023-01-15T08:46:42.864Z,36.65
2023-01-15T08:47:47.572Z,40.05
2023-01-15T08:48:51.732Z,35.53
2023-01-15T08:49:58.057Z,43.22
2023-01-15T08:51:09.769Z,37.63
2023-01-15T08:57:32.056Z,32.58
2023-01-15T08:58:52.877Z,33.80
2023-01-15T09:02:45.277Z,36.30
2023-01-15T09:04:49.573Z,35.17
2023-01-15T09:57:22.910Z,34.58
2023-01-15T10:21:56.295Z,27.75
2023-01-15T10:38:08.558Z,22.48
2023-01-15T10:44:14.662Z,29.85
2023-01-15T10:49:30.082Z,24.20
2023-01-15T11:27:40.455Z,29.27
2023-01-15T11:29:30.198Z,26.55
2023-01-15T11:30:55.210Z,25.83
2023-01-15T11:33:57.687Z,24.73
2023-01-15T11:38:52.075Z,27.75
2023-01-15T11:42:42.662Z,21.17
2023-01-15T12:11:48.125Z,21.73
2023-01-15T12:25:33.903Z,21.15
2023-01-15T12:31:16.045Z,21.15
2023-01-15T12:33:02.457Z,22.55
2023-01-15T12:34:50.165Z,22.95
2023-01-15T12:36:32.139Z,17.90
2023-01-15T12:38:17.171Z,24.85
2023-01-15T12:39:50.692Z,23.98
2023-01-15T12:41:57.979Z,24.73
2023-01-15T12:44:20.403Z,19.50
2023-01-15T12:45:37.330Z,25.13
2023-01-15T12:46:59.161Z,18.40
2023-01-15T13:02:00.994Z,26.27
2023-01-15T13:04:52.319Z,23.25
2023-01-15T13:16:31.158Z,24.77
2023-01-15T13:31:46.550Z,26.50
2023-01-15T13:35:03.269Z,24.20
2023-01-15T13:38:48.640Z,23.45
2023-01-15T13:42:56.498Z,21.38
2023-01-15T13:52:42.903Z,27.25
2023-01-15T13:57:51.654Z,22.85
2023-01-15T13:59:52.769Z,21.83
2023-01-15T14:01:33.297Z,18.42
2023-01-15T14:03:09.251Z,23.70
2023-01-15T14:05:42.661Z,26.58
2023-01-15T14:06:54.463Z,24.92
2023-01-15T14:09:12.624Z,20.58
2023-01-15T14:10:24.242Z,22.58
2023-01-15T14:14:54.233Z,24.38
2023-01-15T14:16:19.509Z,19.95
2023-01-15T14:20:39.711Z,21.77
2023-01-15T14:22:25.306Z,22.73
2023-01-15T14:24:41.358Z,19.83
2023-01-15T14:28:44.938Z,28.10
2023-01-15T14:30:37.947Z,29.38
2023-01-15T14:43:12.827Z,27.00
2023-01-15T14:44:32.694Z,26.42
2023-01-15T14:45:39.792Z,28.33
2023-01-15T14:46:48.973Z,30.15
2023-01-15T14:50:42.449Z,29.52
2023-01-15T14:52:21.893Z,28.05
2023-01-15T14:53:50.305Z,28.30
2023-01-15T14:54:57.977Z,23.60
2023-01-15T14:56:24.508Z,25.88
2023-01-15T14:59:37.641Z,21.13
2023-01-15T15:00:58.185Z,26.45
2023-01-15T15:02:46.675Z,22.20
2023-01-15T15:04:25.649Z,20.40
2023-01-15T15:05:40.182Z,23.85
2023-01-15T15:07:07.079Z,27.48
2023-01-15T15:10:43.970Z,18.90
2023-01-15T15:12:24.598Z,21.95
2023-01-15T15:13:58.172Z,19.50
2023-01-15T15:15:21.652Z,21.25
2023-01-15T15:18:53.325Z,22.52
2023-01-15T15:20:46.885Z,19.98
2023-01-15T15:22:17.272Z,22.27
2023-01-15T15:23:52.560Z,23.92
2023-01-15T15:26:27.040Z,22.55
2023-01-15T15:27:43.882Z,21.30
2023-01-15T15:44:15.625Z,22.73
2023-01-15T15:45:56.086Z,23.98
2023-01-15T15:48:19.649Z,24.17
2023-01-15T15:49:41.945Z,22.95
2023-01-15T15:51:12.869Z,25.85
2023-01-15T15:52:40.928Z,27.70
2023-01-15T15:53:50.285Z,23.02
2023-01-15T15:55:05.167Z,34.80
2023-01-15T15:56:42.082Z,29.95
2023-01-15T15:57:50.364Z,25.98
2023-01-15T15:59:54.991Z,31.48
2023-01-15T16:04:02.596Z,32.78
2023-01-15T16:05:23.759Z,26.42
2023-01-15T16:06:34.687Z,29.02
2023-01-15T16:08:19.328Z,25.35
2023-01-15T16:34:22.523Z,30.40
2023-01-15T16:37:04.895Z,31.92
2023-01-15T16:39:57.646Z,30.98
2023-01-15T16:41:44.822Z,33.55
2023-01-15T16:43:12.449Z,35.00
2023-01-15T16:44:47.092Z,30.52
2023-01-15T16:46:33.683Z,31.75
2023-01-15T16:48:07.554Z,29.00
2023-01-15T16:49:30.819Z,28.58
2023-01-15T16:51:02.777Z,32.67
2023-01-15T16:52:39.813Z,34.70
2023-01-15T16:53:44.524Z,32.72
2023-01-15T16:54:55.349Z,30.13
2023-01-15T16:56:04.468Z,27.65
2023-01-15T16:57:38.459Z,35.80
2023-01-15T16:58:43.266Z,35.42
2023-01-15T17:01:47.788Z,30.85
2023-01-15T17:02:53.761Z,34.88
2023-01-15T17:04:01.254Z,33.03
2023-01-15T17:05:25.075Z,37.05
2023-01-15T17:06:30.504Z,35.85
2023-01-15T17:07:39.497Z,28.73
2023-01-15T17:08:51.793Z,35.47
2023-01-15T17:10:18.496Z,35.63
2023-01-15T17:11:32.256Z,28.38
2023-01-15T17:12:56.593Z,35.60
2023-01-15T17:14:29.772Z,27.83
2023-01-15T17:21:36.237Z,33.60
2023-01-15T17:24:36.408Z,33.05
2023-01-15T17:25:41.163Z,32.20
2023-01-15T17:26:49.121Z,29.95
2023-01-15T17:28:00.511Z,27.08
2023-01-15T17:29:17.282Z,24.95
2023-01-15T17:30:34.564Z,37.22
2023-01-15T17:31:49.902Z,33.25
2023-01-15T17:33:03.443Z,27.38
2023-01-15T17:34:16.249Z,30.35
2023-01-15T17:35:32.219Z,28.67
2023-01-15T17:36:42.467Z,28.38
2023-01-15T17:37:46.115Z,31.60
2023-01-15T17:38:54.843Z,33.63
2023-01-15T17:40:01.386Z,31.98
2023-01-15T17:41:17.694Z,31.48
2023-01-15T17:42:29.729Z,29.20
2023-01-15T17:43:42.649Z,31.33
2023-01-15T17:44:52.403Z,28.00
2023-01-15T17:45:58.498Z,31.17
2023-01-15T17:47:02.685Z,29.10
2023-01-15T17:48:10.925Z,32.22
2023-01-15T17:49:25.081Z,29.60
2023-01-15T17:50:42.418Z,26.33
2023-01-15T17:51:51.602Z,32.72
2023-01-15T17:53:15.388Z,27.40
2023-01-15T17:54:45.429Z,33.47
2023-01-15T17:56:17.694Z,29.17
2023-01-15T18:08:31.619Z,30.02
2023-01-15T18:09:40.195Z,29.23
2023-01-15T18:10:49.667Z,28.52
2023-01-15T18:11:58.104Z,31.20
2023-01-15T18:13:03.253Z,31.77
2023-01-15T18:14:09.061Z,25.95
2023-01-15T18:15:14.977Z,30.35
2023-01-15T18:16:19.364Z,31.25
2023-01-15T18:17:25.099Z,31.25
2023-01-15T18:18:36.823Z,29.05
2023-01-15T18:19:41.634Z,29.02
2023-01-15T18:20:47.839Z,27.58
2023-01-15T18:21:53.150Z,33.45
2023-01-15T18:22:55.464Z,29.88
2023-01-15T18:23:59.856Z,29.45
2023-01-15T18:25:07.084Z,29.77
2023-01-15T18:26:12.562Z,29.13
2023-01-15T18:27:19.513Z,31.98
2023-01-15T18:29:20.780Z,31.05
2023-01-15T18:30:35.130Z,30.25
2023-01-15T18:32:13.170Z,29.42
2023-01-15T18:33:19.476Z,36.17
2023-01-15T18:34:30.527Z,31.58
2023-01-15T18:35:38.737Z,32.40
2023-01-15T18:37:02.525Z,34.28
2023-01-15T18:38:39.632Z,31.90
2023-01-15T18:39:46.585Z,31.52
2023-01-15T18:40:57.353Z,33.50
2023-01-15T18:42:03.051Z,28.15
2023-01-15T18:43:27.441Z,32.05
2023-01-15T18:44:55.783Z,34.13
2023-01-15T18:46:24.760Z,28.58
2023-01-15T18:48:10.350Z,31.42
2023-01-15T18:49:14.844Z,30.45
2023-01-15T18:50:25.708Z,27.40
2023-01-15T18:51:31.576Z,35.50
2023-01-15T18:52:56.712Z,31.63
2023-01-15T18:54:11.709Z,26.45
2023-01-15T18:55:31.238Z,34.03
2023-01-15T18:56:42.796Z,33.15
2023-01-15T18:57:47.676Z,26.15
2023-01-15T18:58:58.212Z,32.27
2023-01-15T19:00:08.488Z,27.58
2023-01-15T19:01:20.679Z,34.45
2023-01-15T19:02:30.067Z,28.23
2023-01-15T19:05:24.932Z,30.30
2023-01-15T19:06:53.185Z,29.63
2023-01-15T19:08:00.895Z,31.63
2023-01-15T19:09:13.981Z,30.42
2023-01-15T19:10:23.223Z,32.88
2023-01-15T19:11:50.457Z,35.25
2023-01-15T19:12:55.036Z,33.40
2023-01-15T19:14:19.565Z,35.42
2023-01-15T19:15:42.958Z,29.33
2023-01-15T19:17:05.034Z,29.65
2023-01-15T19:18:31.709Z,29.40
2023-01-15T19:20:01.546Z,31.95
2023-01-15T19:21:14.672Z,31.15
2023-01-15T19:22:40.481Z,29.92
2023-01-15T19:23:55.186Z,29.88
2023-01-15T19:25:01.502Z,28.88
2023-01-15T19:26:08.029Z,29.70
2023-01-15T19:27:28.143Z,28.58
2023-01-15T19:28:43.390Z,30.58
2023-01-15T19:29:53.519Z,28.52
2023-01-15T19:31:36.639Z,26.83
2023-01-15T19:32:47.163Z,32.28
2023-01-15T19:34:31.151Z,31.27
2023-01-15T19:35:53.067Z,38.78
2023-01-15T19:37:09.114Z,30.98
2023-01-15T19:38:26.618Z,30.88
2023-01-15T19:39:36.721Z,30.02
2023-01-15T19:40:46.917Z,27.05
2023-01-15T19:42:20.111Z,27.02
2023-01-15T19:43:47.525Z,28.02
2023-01-15T19:45:13.524Z,27.60
2023-01-15T19:46:41.690Z,32.45
2023-01-15T19:48:06.915Z,29.10
2023-01-15T19:49:43.135Z,29.77
2023-01-15T19:50:49.805Z,30.92
2023-01-15T19:52:22.123Z,27.10
2023-01-15T19:53:28.812Z,32.38
2023-01-15T19:54:55.490Z,29.45
2023-01-15T19:56:17.270Z,32.78
2023-01-15T19:57:27.534Z,28.88
2023-01-15T19:58:42.482Z,29.10
2023-01-15T19:59:56.061Z,34.63
2023-01-15T20:01:18.658Z,27.48
2023-01-15T20:02:30.959Z,33.50
2023-01-15T20:06:06.982Z,28.02
2023-01-15T20:07:29.287Z,28.60
2023-01-15T20:09:05.536Z,30.25
2023-01-15T20:10:41.403Z,30.95
2023-01-15T20:12:08.351Z,26.55
2023-01-15T20:13:38.131Z,29.17
2023-01-15T20:15:27.626Z,30.40
2023-01-15T20:16:32.074Z,28.42
2023-01-15T20:19:33.278Z,29.27
2023-01-15T20:25:55.720Z,35.17
2023-01-15T20:27:11.721Z,32.20
2023-01-15T20:28:27.876Z,30.20
2023-01-15T20:29:40.650Z,34.08
2023-01-15T20:30:47.778Z,31.08
2023-01-15T20:31:57.378Z,31.13
2023-01-15T20:33:07.650Z,31.33
2023-01-15T20:36:09.727Z,34.08
2023-01-15T20:37:19.581Z,29.85
2023-01-15T20:38:31.615Z,30.95
2023-01-15T20:39:37.789Z,30.23
2023-01-15T20:40:49.065Z,36.03
2023-01-15T20:42:13.265Z,35.00
2023-01-15T20:43:43.440Z,32.03
2023-01-15T20:44:56.593Z,28.95
2023-01-15T20:46:20.911Z,35.22
2023-01-15T20:47:48.918Z,34.72
2023-01-15T20:49:11.313Z,32.90
2023-01-15T20:50:17.651Z,31.20
2023-01-15T20:51:41.387Z,34.63
2023-01-15T20:52:50.566Z,32.35
2023-01-15T20:54:02.194Z,31.75
2023-01-15T20:55:09.043Z,37.97
2023-01-15T20:56:19.409Z,31.60
2023-01-15T20:57:30.245Z,36.03
2023-01-15T20:58:35.947Z,34.95
2023-01-15T20:59:39.771Z,37.53
2023-01-15T21:00:43.160Z,36.95
2023-01-15T21:01:51.308Z,34.30
2023-01-15T21:03:02.241Z,39.58
2023-01-15T21:04:14.893Z,35.00
2023-01-15T21:05:21.916Z,39.58
2023-01-15T21:06:28.050Z,35.78
2023-01-15T21:07:33.892Z,35.72
2023-01-15T21:08:37.524Z,39.35
2023-01-15T21:09:40.990Z,35.33
2023-01-15T21:10:59.127Z,38.75
2023-01-15T21:12:03.281Z,36.53
2023-01-15T21:14:15.870Z,35.03
2023-01-15T21:15:20.544Z,40.83
2023-01-15T21:16:27.037Z,38.33
2023-01-15T21:17:31.520Z,35.65
2023-01-15T21:18:45.465Z,39.17
2023-01-15T21:19:49.481Z,40.78
2023-01-15T21:20:58.625Z,38.08
2023-01-15T21:22:05.708Z,40.95
2023-01-15T21:23:10.965Z,40.15
2023-01-15T21:24:17.417Z,42.90
2023-01-15T21:25:22.260Z,39.90
2023-01-15T21:26:27.341Z,41.92
2023-01-15T21:27:33.634Z,38.03
2023-01-15T21:28:39.344Z,40.25
2023-01-15T21:29:48.987Z,41.70
2023-01-15T21:30:52.070Z,37.38
2023-01-15T21:32:00.650Z,40.03
2023-01-15T21:33:12.540Z,43.63
2023-01-15T21:34:20.080Z,44.63
2023-01-15T21:35:23.438Z,36.70
2023-01-15T21:36:28.252Z,34.92
2023-01-15T21:37:31.675Z,43.60
2023-01-15T21:38:35.830Z,39.08
2023-01-15T21:39:39.424Z,39.83
2023-01-15T21:40:42.699Z,43.72
2023-01-15T21:42:04.743Z,41.25
2023-01-15T21:43:26.493Z,41.53
2023-01-15T21:44:32.587Z,39.97
2023-01-15T21:45:38.941Z,40.28
2023-01-15T21:46:43.471Z,39.40
2023-01-15T21:47:49.898Z,36.45
2023-01-15T21:48:53.268Z,43.83
2023-01-15T21:50:00.218Z,44.47
2023-01-15T21:51:06.676Z,38.60
2023-01-15T21:52:15.966Z,39.38
2023-01-15T21:53:21.077Z,41.13
2023-01-15T21:54:25.347Z,42.75
2023-01-15T21:55:30.895Z,43.40
2023-01-15T21:56:38.907Z,49.63
2023-01-15T21:57:45.178Z,41.15
2023-01-15T21:58:51.250Z,39.38
2023-01-15T22:00:00.383Z,42.58
2023-01-15T22:01:14.870Z,39.28
2023-01-15T22:02:22.058Z,38.17
2023-01-15T22:03:25.809Z,43.30
2023-01-15T22:04:31.559Z,44.35
2023-01-15T22:05:34.858Z,44.75
2023-01-15T22:06:38.220Z,39.90
2023-01-15T22:07:41.623Z,39.50
2023-01-15T22:08:48.257Z,43.60
2023-01-15T22:09:52.958Z,38.58
2023-01-15T22:11:06.890Z,42.35
2023-01-15T22:12:10.907Z,44.70
2023-01-15T22:13:14.572Z,44.13
2023-01-15T22:14:22.184Z,36.80
2023-01-15T22:15:32.513Z,50.22
2023-01-15T22:16:36.913Z,48.47
2023-01-15T22:17:40.546Z,40.22
2023-01-15T22:18:49.846Z,48.60
2023-01-15T22:19:53.237Z,40.80
2023-01-15T22:21:02.036Z,43.58
2023-01-15T22:22:10.938Z,39.05
2023-01-15T22:23:14.799Z,44.17
2023-01-15T22:24:23.229Z,39.88
2023-01-15T22:25:28.809Z,48.90
2023-01-15T22:26:35.784Z,46.53
2023-01-15T22:27:43.977Z,43.13
2023-01-15T22:28:48.154Z,51.42
2023-01-15T22:29:52.074Z,47.63
2023-01-15T22:30:57.704Z,45.13
2023-01-15T22:32:03.698Z,48.05
2023-01-15T22:33:06.918Z,43.60
2023-01-15T22:34:13.236Z,47.67
2023-01-15T22:35:19.401Z,43.15
2023-01-15T22:36:24.598Z,46.00
2023-01-15T22:37:37.187Z,44.83
2023-01-15T22:38:42.125Z,43.67
2023-01-15T22:39:46.415Z,47.83
2023-01-15T22:40:50.074Z,49.78
2023-01-15T22:42:14.761Z,47.92
2023-01-15T22:43:27.603Z,49.35
2023-01-15T22:44:31.761Z,53.47
2023-01-15T22:45:41.151Z,49.90
2023-01-15T22:46:45.542Z,44.25
2023-01-15T22:47:48.884Z,49.45
2023-01-15T22:48:54.476Z,45.22
2023-01-15T22:49:58.695Z,48.92
2023-01-15T22:51:03.300Z,44.97
2023-01-15T22:52:11.592Z,46.38
2023-01-15T22:53:16.774Z,44.90
2023-01-15T22:54:20.789Z,54.22
2023-01-15T22:55:25.026Z,49.42
2023-01-15T22:56:28.923Z,42.88
2023-01-15T22:57:32.742Z,49.17
2023-01-15T22:58:42.679Z,46.30
2023-01-15T22:59:48.021Z,46.55
2023-01-15T23:00:57.697Z,47.15
2023-01-15T23:02:01.572Z,41.30
2023-01-15T23:03:08.362Z,41.97
2023-01-15T23:04:19.244Z,39.40
2023-01-15T23:05:26.000Z,36.10
2023-01-15T23:06:29.928Z,45.80
2023-01-15T23:07:35.587Z,38.17
2023-01-15T23:09:01.274Z,42.42
2023-01-15T23:10:13.452Z,41.83
2023-01-15T23:11:17.786Z,37.53
2023-01-15T23:12:24.350Z,45.53
2023-01-15T23:13:41.184Z,43.95
2023-01-15T23:14:57.548Z,45.30
2023-01-15T23:16:12.861Z,49.05
2023-01-15T23:17:38.748Z,40.85
2023-01-15T23:18:43.397Z,42.08
2023-01-15T23:19:52.218Z,44.97
2023-01-15T23:21:06.385Z,44.03
2023-01-15T23:22:19.582Z,40.03
2023-01-15T23:23:30.129Z,45.75
2023-01-15T23:24:37.037Z,46.97
2023-01-15T23:25:40.650Z,43.83
2023-01-15T23:26:51.537Z,44.60
2023-01-15T23:27:54.628Z,43.47
2023-01-15T23:28:58.672Z,40.40
2023-01-15T23:30:07.129Z,41.83
2023-01-15T23:31:16.302Z,41.50
2023-01-15T23:32:32.560Z,41.95
2023-01-15T23:33:50.096Z,40.20
2023-01-15T23:35:03.044Z,43.20
2023-01-15T23:36:13.609Z,48.28
2023-01-15T23:37:24.395Z,44.38
2023-01-15T23:38:49.401Z,38.97
2023-01-15T23:41:00.353Z,39.92
2023-01-15T23:42:21.864Z,39.22
2023-01-15T23:43:45.998Z,46.33
2023-01-15T23:45:12.245Z,42.95
2023-01-15T23:46:33.596Z,39.50
2023-01-15T23:47:38.045Z,41.33
2023-01-15T23:48:41.388Z,42.63
2023-01-15T23:49:54.741Z,46.85
2023-01-15T23:50:57.957Z,41.95
2023-01-15T23:52:14.902Z,54.92
2023-01-15T23:54:52.749Z,50.70
2023-01-15T23:56:00.819Z,42.75
2023-01-15T23:57:04.223Z,39.95
2023-01-15T23:58:10.276Z,40.78
2023-01-15T23:59:13.856Z,40.30
